Meath Environmental Platform

Observations

Time Sensor AQI SAQ Temp °C Hum % Pres Pa CO μg/m³ H₂S μg/m³ NO μg/m³ NO₂ μg/m³ O₃ μg/m³ SO₂ μg/m³ CO₂e PPM VOC PPM PM1 μg/m³ PM2.5 μg/m³ PM4 μg/m³ PM10 μg/m³ TPS µm
Tuesday 16 July 2024
04:26 Trim Patrick St 2 15.1 85 38,288 0.27 0.88 0 17.6 0 0 8.86 13.13 14.45
04:26 Trim Patrick St 2 15.1 85 38,288 0.3 0.91 0 16.27 0 0 9.71 15.2 16.72
04:26 Trim Patrick St 2 15.1 85 38,288 0.25 1.17 0 17.82 0 0 10.57 13.82 15.2
04:26 Trim Patrick St 2 15.1 85 38,288 0.25 1.09 0 17.82 0 0 9.71 13.13 14.45
04:26 Trim Patrick St 2 15 85 38,288 0.27 0.88 0 18.33 0 0 10.57 13.82 15.2
04:26 Trim Patrick St 2 15.1 86 38,288 0.28 0.93 3.5 17.81 0 0 9.71 14.5 15.95
04:25 Trim Patrick St 2 15.1 86 38,288 0.22 0.54 2.48 16.93 0 0 11.43 15.19 16.71
04:25 Trim Patrick St 2 15.1 86 38,288 0.29 0.28 0 18.03 0 0 10.57 14.5 15.95
04:25 Trim Patrick St 2 15.1 86 38,288 0.28 1.14 0 15.59 0 0 10.57 14.5 15.95
04:25 Trim Patrick St 2 15.1 86 38,288 0.25 0.99 0.11 16.93 0 0 11.43 15.19 16.71
04:25 Trim Patrick St 2 15.1 86 38,288 0.24 1.14 1.42 18.03 0 0 12.29 16.57 18.22
04:25 Trim Patrick St 2 15.1 86 38,288 0.29 1.06 2.24 18.02 0 0 11.43 15.87 17.45
04:24 Trim Patrick St 2 15.1 86 38,288 0.3 0.7 0 17.81 0 0 10.57 15.88 17.47
04:24 Trim Patrick St 2 15 86 38,288 0.24 1.14 0 19.2 0 0 8.86 14.49 15.94
04:24 Trim Patrick St 2 15.1 86 38,288 0.26 1.12 0 18.91 0 0 8.86 14.49 15.94
04:24 Trim Patrick St 2 15 86 38,288 0.29 1.01 0 15.87 0 0 10.57 14.49 15.94
04:24 Trim Patrick St 2 15.1 86 38,288 0.26 1.4 0 17.36 0 0 10.57 14.49 15.94
04:24 Trim Patrick St 2 15.1 86 38,288 0.28 1.53 0 20.68 0 0 9.71 14.49 15.94
04:23 Trim Patrick St 2 15 86 38,288 0.27 0.67 4.2 16.98 0 0 8.86 14.49 15.94
04:23 Trim Patrick St 2 15 86 38,288 0.29 1.56 0 16.76 0 0 9.71 14.49 15.94